createdAt,value
2018-12-04T00:00:04.403Z,14.484096
2018-12-04T00:00:16.815Z,9.656064
2018-12-04T00:00:29.212Z,9.656064
2018-12-04T00:00:41.608Z,9.656064
2018-12-04T00:00:53.992Z,9.656064
2018-12-04T00:01:06.964Z,8.04672
2018-12-04T00:01:19.342Z,9.656064
2018-12-04T00:01:31.702Z,11.265408
2018-12-04T00:01:44.077Z,12.874752
2018-12-04T00:01:56.447Z,12.874752
2018-12-04T00:02:09.113Z,6.437376
2018-12-04T00:02:21.549Z,6.437376
2018-12-04T00:02:33.918Z,6.437376
2018-12-04T00:02:46.309Z,6.437376
2018-12-04T00:02:58.701Z,6.437376
2018-12-04T00:03:11.078Z,1.609344
2018-12-04T00:03:23.450Z,8.04672
2018-12-04T00:03:35.840Z,8.04672
2018-12-04T00:03:48.218Z,8.04672
2018-12-04T00:04:00.607Z,8.04672
2018-12-04T00:04:12.990Z,8.04672
2018-12-04T00:04:25.357Z,8.04672
2018-12-04T00:04:37.750Z,9.656064
2018-12-04T00:04:50.132Z,9.656064
2018-12-04T00:05:02.516Z,9.656064
2018-12-04T00:05:14.879Z,6.437376
2018-12-04T00:05:27.252Z,8.04672
2018-12-04T00:05:39.618Z,8.04672
2018-12-04T00:05:52.046Z,9.656064
2018-12-04T00:06:04.450Z,11.265408
2018-12-04T00:06:16.891Z,11.265408
2018-12-04T00:06:29.265Z,11.265408
2018-12-04T00:06:41.630Z,11.265408
2018-12-04T00:06:54.018Z,11.265408
2018-12-04T00:07:06.402Z,6.437376
2018-12-04T00:07:18.822Z,9.656064
2018-12-04T00:07:31.205Z,9.656064
2018-12-04T00:07:43.574Z,9.656064
2018-12-04T00:07:55.949Z,9.656064
2018-12-04T00:08:08.331Z,6.437376
2018-12-04T00:08:20.696Z,9.656064
2018-12-04T00:08:33.079Z,9.656064
2018-12-04T00:08:45.476Z,9.656064
2018-12-04T00:08:57.842Z,11.265408
2018-12-04T00:09:10.223Z,12.874752
2018-12-04T00:09:22.622Z,14.484096
2018-12-04T00:09:34.995Z,14.484096
2018-12-04T00:09:47.378Z,14.484096
2018-12-04T00:09:59.744Z,14.484096
2018-12-04T00:10:12.226Z,8.04672
2018-12-04T00:10:24.616Z,12.874752
2018-12-04T00:10:37.026Z,12.874752
2018-12-04T00:10:49.374Z,12.874752
2018-12-04T00:11:01.761Z,12.874752
2018-12-04T00:11:14.140Z,9.656064
2018-12-04T00:11:26.520Z,11.265408
2018-12-04T00:11:39.087Z,11.265408
2018-12-04T00:11:51.458Z,12.874752
2018-12-04T00:12:03.818Z,12.874752
2018-12-04T00:12:16.189Z,8.04672
2018-12-04T00:12:28.569Z,11.265408
2018-12-04T00:12:41.018Z,11.265408
2018-12-04T00:12:53.421Z,11.265408
2018-12-04T00:13:05.838Z,11.265408
2018-12-04T00:13:18.225Z,11.265408
2018-12-04T00:13:30.596Z,11.265408
2018-12-04T00:13:42.971Z,11.265408
2018-12-04T00:13:55.348Z,14.484096
2018-12-04T00:14:07.741Z,11.265408
2018-12-04T00:14:20.129Z,11.265408
2018-12-04T00:14:32.490Z,11.265408
2018-12-04T00:14:45.009Z,11.265408
2018-12-04T00:14:57.472Z,11.265408
2018-12-04T00:15:09.920Z,8.04672
2018-12-04T00:15:22.281Z,8.04672
2018-12-04T00:15:34.672Z,9.656064
2018-12-04T00:15:47.036Z,9.656064
2018-12-04T00:15:59.426Z,9.656064
2018-12-04T00:16:11.808Z,3.218688
2018-12-04T00:16:24.203Z,8.04672
2018-12-04T00:16:37.244Z,9.656064
2018-12-04T00:16:49.648Z,9.656064
2018-12-04T00:17:02.009Z,9.656064
2018-12-04T00:17:14.397Z,6.437376
2018-12-04T00:17:26.801Z,6.437376
2018-12-04T00:17:39.184Z,6.437376
2018-12-04T00:17:51.756Z,8.04672
2018-12-04T00:18:04.150Z,8.04672
2018-12-04T00:18:16.516Z,3.218688
2018-12-04T00:18:28.877Z,4.828032
2018-12-04T00:18:41.249Z,9.656064
2018-12-04T00:18:53.651Z,12.874752
2018-12-04T00:19:06.041Z,12.874752
2018-12-04T00:19:18.417Z,12.874752
2018-12-04T00:19:30.836Z,12.874752
2018-12-04T00:19:43.555Z,12.874752
2018-12-04T00:19:55.951Z,12.874752
2018-12-04T00:20:08.398Z,8.04672
2018-12-04T00:20:20.770Z,9.656064
2018-12-04T00:20:33.166Z,9.656064
2018-12-04T00:20:45.549Z,11.265408
2018-12-04T00:20:57.925Z,11.265408
2018-12-04T00:21:10.299Z,8.04672
2018-12-04T00:21:22.689Z,8.04672
2018-12-04T00:21:35.086Z,8.04672
2018-12-04T00:21:47.492Z,8.04672
2018-12-04T00:21:59.876Z,8.04672
2018-12-04T00:22:12.281Z,4.828032
2018-12-04T00:22:24.652Z,12.874752
2018-12-04T00:22:37.043Z,14.484096
2018-12-04T00:22:49.430Z,14.484096
2018-12-04T00:23:01.819Z,14.484096
2018-12-04T00:23:14.208Z,3.218688
2018-12-04T00:23:26.601Z,9.656064
2018-12-04T00:23:38.982Z,9.656064
2018-12-04T00:23:51.515Z,9.656064
2018-12-04T00:24:04.040Z,9.656064
2018-12-04T00:24:16.431Z,3.218688
2018-12-04T00:24:28.795Z,6.437376
2018-12-04T00:24:41.187Z,11.265408
2018-12-04T00:24:53.545Z,11.265408
2018-12-04T00:25:05.925Z,6.437376
2018-12-04T00:25:18.293Z,6.437376
2018-12-04T00:25:30.700Z,9.656064
2018-12-04T00:25:43.084Z,12.874752
2018-12-04T00:25:55.491Z,12.874752
2018-12-04T00:26:07.963Z,6.437376
2018-12-04T00:26:20.418Z,11.265408
2018-12-04T00:26:32.879Z,11.265408
2018-12-04T00:26:45.243Z,16.09344
2018-12-04T00:26:57.701Z,16.09344
2018-12-04T00:27:10.093Z,8.04672
2018-12-04T00:27:22.458Z,8.04672
2018-12-04T00:27:34.829Z,8.04672
2018-12-04T00:27:47.259Z,8.04672
2018-12-04T00:27:59.735Z,8.04672
2018-12-04T00:28:12.269Z,8.04672
2018-12-04T00:28:24.667Z,9.656064
2018-12-04T00:28:37.051Z,12.874752
2018-12-04T00:28:49.436Z,12.874752
2018-12-04T00:29:01.830Z,12.874752
2018-12-04T00:29:14.270Z,3.218688
2018-12-04T00:29:26.658Z,3.218688
2018-12-04T00:29:39.036Z,8.04672
2018-12-04T00:29:51.592Z,8.04672
2018-12-04T00:30:03.972Z,8.04672
2018-12-04T00:30:16.352Z,3.218688
2018-12-04T00:30:28.807Z,8.04672
2018-12-04T00:30:41.272Z,14.484096
2018-12-04T00:30:53.657Z,17.702784
2018-12-04T00:31:06.032Z,11.265408
2018-12-04T00:31:18.429Z,11.265408
2018-12-04T00:31:30.815Z,14.484096
2018-12-04T00:31:43.184Z,14.484096
2018-12-04T00:31:55.551Z,14.484096
2018-12-04T00:32:07.954Z,8.04672
2018-12-04T00:32:20.322Z,8.04672
2018-12-04T00:32:32.708Z,8.04672
2018-12-04T00:32:45.068Z,8.04672
2018-12-04T00:32:57.431Z,9.656064
2018-12-04T00:33:09.906Z,8.04672
2018-12-04T00:33:22.290Z,11.265408
2018-12-04T00:33:34.731Z,11.265408
2018-12-04T00:33:47.102Z,11.265408
2018-12-04T00:33:59.618Z,11.265408
2018-12-04T00:34:12.006Z,1.609344
2018-12-04T00:34:24.379Z,3.218688
2018-12-04T00:34:36.727Z,3.218688
2018-12-04T00:34:49.099Z,3.218688
2018-12-04T00:35:01.501Z,3.218688
2018-12-04T00:35:13.864Z,3.218688
2018-12-04T00:35:26.237Z,3.218688
2018-12-04T00:35:38.609Z,3.218688
2018-12-04T00:35:50.975Z,3.218688
2018-12-04T00:36:03.589Z,8.04672
2018-12-04T00:36:15.980Z,6.437376
2018-12-04T00:36:28.348Z,6.437376
2018-12-04T00:36:40.751Z,6.437376
2018-12-04T00:36:53.118Z,6.437376
2018-12-04T00:37:05.498Z,1.609344
2018-12-04T00:37:17.890Z,1.609344
2018-12-04T00:37:30.263Z,3.218688
2018-12-04T00:37:42.638Z,6.437376
2018-12-04T00:37:55.062Z,6.437376
2018-12-04T00:38:07.414Z,3.218688
2018-12-04T00:38:19.791Z,12.874752
2018-12-04T00:38:32.177Z,14.484096
2018-12-04T00:38:44.567Z,14.484096
2018-12-04T00:38:56.976Z,14.484096
2018-12-04T00:39:10.782Z,8.04672
2018-12-04T00:39:23.171Z,8.04672
2018-12-04T00:39:35.561Z,8.04672
2018-12-04T00:39:47.959Z,8.04672
2018-12-04T00:40:00.331Z,8.04672
2018-12-04T00:40:12.713Z,1.609344
2018-12-04T00:40:25.084Z,1.609344
2018-12-04T00:40:37.453Z,1.609344
2018-12-04T00:40:49.875Z,3.218688
2018-12-04T00:41:02.398Z,3.218688
2018-12-04T00:41:14.886Z,3.218688
2018-12-04T00:41:27.280Z,6.437376
2018-12-04T00:41:39.668Z,8.04672
2018-12-04T00:41:52.026Z,8.04672
2018-12-04T00:42:04.412Z,8.04672
2018-12-04T00:42:16.784Z,9.656064
2018-12-04T00:42:29.169Z,9.656064
2018-12-04T00:42:41.531Z,9.656064
2018-12-04T00:42:53.888Z,9.656064
2018-12-04T00:43:06.314Z,1.609344
2018-12-04T00:43:18.706Z,9.656064
2018-12-04T00:43:31.081Z,11.265408
2018-12-04T00:43:43.448Z,11.265408
2018-12-04T00:43:55.946Z,11.265408
2018-12-04T00:44:08.338Z,8.04672
2018-12-04T00:44:20.739Z,8.04672
2018-12-04T00:44:33.127Z,8.04672
2018-12-04T00:44:45.509Z,8.04672
2018-12-04T00:44:57.906Z,8.04672
2018-12-04T00:45:10.278Z,9.656064
2018-12-04T00:45:22.672Z,9.656064
2018-12-04T00:45:35.039Z,9.656064
2018-12-04T00:45:47.412Z,9.656064
2018-12-04T00:45:59.794Z,9.656064
2018-12-04T00:46:12.228Z,6.437376
2018-12-04T00:46:24.761Z,6.437376
2018-12-04T00:46:37.153Z,6.437376
2018-12-04T00:46:49.526Z,6.437376
2018-12-04T00:47:02.072Z,6.437376
2018-12-04T00:47:14.437Z,11.265408
2018-12-04T00:47:26.827Z,12.874752
2018-12-04T00:47:39.193Z,12.874752
2018-12-04T00:47:51.970Z,12.874752
2018-12-04T00:48:04.359Z,12.874752
2018-12-04T00:48:16.749Z,9.656064
2018-12-04T00:48:29.153Z,9.656064
2018-12-04T00:48:41.523Z,9.656064
2018-12-04T00:48:53.898Z,9.656064
2018-12-04T00:49:06.304Z,9.656064
2018-12-04T00:49:18.676Z,9.656064
2018-12-04T00:49:31.049Z,9.656064
2018-12-04T00:49:43.443Z,9.656064
2018-12-04T00:49:55.961Z,9.656064
2018-12-04T00:50:08.362Z,12.874752
2018-12-04T00:50:20.754Z,12.874752
2018-12-04T00:50:33.278Z,12.874752
2018-12-04T00:50:45.664Z,12.874752
2018-12-04T00:50:58.044Z,12.874752
2018-12-04T00:51:10.442Z,9.656064
2018-12-04T00:51:22.877Z,11.265408
2018-12-04T00:51:35.240Z,14.484096
2018-12-04T00:51:47.648Z,14.484096
2018-12-04T00:52:00.059Z,14.484096
2018-12-04T00:52:12.416Z,12.874752
2018-12-04T00:52:24.778Z,12.874752
2018-12-04T00:52:37.172Z,12.874752
2018-12-04T00:52:49.572Z,12.874752
2018-12-04T00:53:01.974Z,12.874752
2018-12-04T00:53:14.372Z,11.265408
2018-12-04T00:53:26.747Z,11.265408
2018-12-04T00:53:39.133Z,11.265408
2018-12-04T00:53:52.018Z,11.265408
2018-12-04T00:54:04.404Z,11.265408
2018-12-04T00:54:16.782Z,6.437376
2018-12-04T00:54:29.190Z,6.437376
2018-12-04T00:54:41.742Z,6.437376
2018-12-04T00:54:54.154Z,6.437376
2018-12-04T00:55:06.528Z,3.218688
2018-12-04T00:55:18.932Z,3.218688
2018-12-04T00:55:31.316Z,12.874752
2018-12-04T00:55:43.701Z,12.874752
2018-12-04T00:55:56.105Z,12.874752
2018-12-04T00:56:08.576Z,3.218688
2018-12-04T00:56:20.974Z,3.218688
2018-12-04T00:56:33.343Z,6.437376
2018-12-04T00:56:45.731Z,14.484096
2018-12-04T00:56:58.129Z,14.484096
2018-12-04T00:57:10.511Z,8.04672
2018-12-04T00:57:22.893Z,8.04672
2018-12-04T00:57:35.292Z,11.265408
2018-12-04T00:57:47.710Z,11.265408
2018-12-04T00:58:00.094Z,11.265408
2018-12-04T00:58:12.519Z,8.04672
2018-12-04T00:58:24.891Z,8.04672
2018-12-04T00:58:37.272Z,8.04672
2018-12-04T00:58:49.657Z,8.04672
2018-12-04T00:59:02.019Z,8.04672
2018-12-04T00:59:14.395Z,3.218688
2018-12-04T00:59:26.878Z,3.218688
2018-12-04T00:59:39.255Z,8.04672
2018-12-04T00:59:51.715Z,14.484096
2018-12-04T01:00:04.087Z,9.656064
2018-12-04T01:00:16.474Z,12.874752
2018-12-04T01:00:28.841Z,12.874752
2018-12-04T01:00:41.224Z,12.874752
2018-12-04T01:00:53.634Z,12.874752
2018-12-04T01:01:06.011Z,9.656064
2018-12-04T01:01:18.427Z,11.265408
2018-12-04T01:01:30.819Z,11.265408
2018-12-04T01:01:43.225Z,11.265408
2018-12-04T01:01:55.588Z,11.265408
2018-12-04T01:02:07.970Z,4.828032
2018-12-04T01:02:20.336Z,4.828032
2018-12-04T01:02:32.705Z,6.437376
2018-12-04T01:02:45.068Z,8.04672
2018-12-04T01:02:57.489Z,9.656064
2018-12-04T01:03:09.850Z,6.437376
2018-12-04T01:03:22.247Z,6.437376
2018-12-04T01:03:34.649Z,6.437376
2018-12-04T01:03:47.046Z,6.437376
2018-12-04T01:03:59.455Z,8.04672
2018-12-04T01:04:11.851Z,6.437376
2018-12-04T01:04:24.247Z,6.437376
2018-12-04T01:04:36.649Z,6.437376
2018-12-04T01:04:49.013Z,6.437376
2018-12-04T01:05:01.386Z,6.437376
2018-12-04T01:05:13.767Z,8.04672
2018-12-04T01:05:26.138Z,8.04672
2018-12-04T01:05:38.509Z,8.04672
2018-12-04T01:05:50.894Z,8.04672
2018-12-04T01:06:03.292Z,8.04672
2018-12-04T01:06:15.671Z,1.609344
2018-12-04T01:06:28.047Z,1.609344
2018-12-04T01:06:40.435Z,1.609344
2018-12-04T01:06:52.791Z,1.609344
2018-12-04T01:07:05.177Z,0
2018-12-04T01:07:17.552Z,0
2018-12-04T01:07:29.927Z,8.04672
2018-12-04T01:07:42.299Z,8.04672
2018-12-04T01:07:54.678Z,8.04672
2018-12-04T01:08:07.058Z,3.218688
2018-12-04T01:08:19.433Z,6.437376
2018-12-04T01:08:31.812Z,6.437376
2018-12-04T01:08:44.221Z,6.437376
2018-12-04T01:08:56.594Z,6.437376
2018-12-04T01:09:08.987Z,4.828032
2018-12-04T01:09:21.366Z,6.437376
2018-12-04T01:09:33.757Z,6.437376
2018-12-04T01:09:46.151Z,6.437376
2018-12-04T01:09:58.940Z,6.437376
2018-12-04T01:10:11.328Z,0
2018-12-04T01:10:23.721Z,1.609344
2018-12-04T01:10:36.096Z,3.218688
2018-12-04T01:10:48.500Z,3.218688
2018-12-04T01:11:00.907Z,6.437376
2018-12-04T01:11:13.274Z,3.218688
2018-12-04T01:11:25.667Z,4.828032
2018-12-04T01:11:38.040Z,4.828032
2018-12-04T01:11:50.409Z,4.828032
2018-12-04T01:12:02.799Z,4.828032
2018-12-04T01:12:15.198Z,1.609344
2018-12-04T01:12:27.579Z,1.609344
2018-12-04T01:12:40.016Z,3.218688
2018-12-04T01:12:52.419Z,3.218688
2018-12-04T01:13:04.795Z,1.609344
2018-12-04T01:13:17.174Z,1.609344
2018-12-04T01:13:29.566Z,1.609344
2018-12-04T01:13:41.965Z,1.609344
2018-12-04T01:13:54.335Z,1.609344
2018-12-04T01:14:06.726Z,1.609344
2018-12-04T01:14:19.109Z,6.437376
2018-12-04T01:14:31.478Z,8.04672
2018-12-04T01:14:43.851Z,8.04672
2018-12-04T01:14:56.378Z,8.04672
2018-12-04T01:15:08.747Z,3.218688
2018-12-04T01:15:21.129Z,3.218688
2018-12-04T01:15:33.597Z,3.218688
2018-12-04T01:15:45.989Z,3.218688
2018-12-04T01:15:58.360Z,3.218688
2018-12-04T01:16:10.764Z,0
2018-12-04T01:16:23.147Z,0
2018-12-04T01:16:35.558Z,1.609344
2018-12-04T01:16:47.933Z,1.609344
2018-12-04T01:17:00.332Z,1.609344
2018-12-04T01:17:12.710Z,3.218688
2018-12-04T01:17:25.212Z,11.265408
2018-12-04T01:17:37.595Z,11.265408
2018-12-04T01:17:49.984Z,11.265408
2018-12-04T01:18:02.372Z,11.265408
2018-12-04T01:18:14.792Z,3.218688
2018-12-04T01:18:27.187Z,3.218688
2018-12-04T01:18:39.588Z,3.218688
2018-12-04T01:18:51.964Z,3.218688
2018-12-04T01:19:04.362Z,3.218688
2018-12-04T01:19:16.730Z,8.04672
2018-12-04T01:19:29.121Z,8.04672
2018-12-04T01:19:41.513Z,8.04672
2018-12-04T01:19:53.889Z,8.04672
2018-12-04T01:20:06.440Z,1.609344
2018-12-04T01:20:18.936Z,3.218688
2018-12-04T01:20:31.315Z,3.218688
2018-12-04T01:20:43.700Z,3.218688
2018-12-04T01:20:56.092Z,3.218688
2018-12-04T01:21:08.477Z,3.218688
2018-12-04T01:21:20.847Z,3.218688
2018-12-04T01:21:33.391Z,6.437376
2018-12-04T01:21:45.771Z,6.437376
2018-12-04T01:21:58.399Z,6.437376
2018-12-04T01:22:11.412Z,6.437376
2018-12-04T01:22:23.828Z,8.04672
2018-12-04T01:22:36.230Z,8.04672
2018-12-04T01:22:48.629Z,8.04672
2018-12-04T01:23:01.048Z,8.04672
2018-12-04T01:23:13.459Z,6.437376
2018-12-04T01:23:25.847Z,8.04672
2018-12-04T01:23:38.270Z,8.04672
2018-12-04T01:23:50.839Z,8.04672
2018-12-04T01:24:03.369Z,8.04672
2018-12-04T01:24:15.805Z,3.218688
2018-12-04T01:24:28.225Z,3.218688
2018-12-04T01:24:40.671Z,6.437376
2018-12-04T01:24:53.064Z,8.04672
2018-12-04T01:25:05.475Z,6.437376
2018-12-04T01:25:17.894Z,11.265408
2018-12-04T01:25:30.280Z,11.265408
2018-12-04T01:25:42.646Z,11.265408
2018-12-04T01:25:55.014Z,11.265408
2018-12-04T01:26:07.511Z,6.437376
2018-12-04T01:26:19.906Z,8.04672
2018-12-04T01:26:32.456Z,8.04672
2018-12-04T01:26:44.836Z,8.04672
2018-12-04T01:26:57.433Z,8.04672
2018-12-04T01:27:09.797Z,8.04672
2018-12-04T01:27:22.184Z,8.04672
2018-12-04T01:27:34.556Z,8.04672
2018-12-04T01:27:46.950Z,8.04672
2018-12-04T01:27:59.501Z,8.04672
2018-12-04T01:28:11.995Z,3.218688
2018-12-04T01:28:24.371Z,3.218688
2018-12-04T01:28:36.777Z,3.218688
2018-12-04T01:28:49.143Z,3.218688
2018-12-04T01:29:01.503Z,3.218688
2018-12-04T01:29:13.879Z,3.218688
2018-12-04T01:29:26.267Z,3.218688
2018-12-04T01:29:38.637Z,3.218688
2018-12-04T01:29:51.229Z,3.218688
2018-12-04T01:30:03.639Z,3.218688
2018-12-04T01:30:16.001Z,3.218688
2018-12-04T01:30:28.542Z,4.828032
2018-12-04T01:30:41.089Z,4.828032
2018-12-04T01:30:53.479Z,9.656064
2018-12-04T01:31:05.848Z,11.265408
2018-12-04T01:31:18.219Z,11.265408
2018-12-04T01:31:30.594Z,11.265408
2018-12-04T01:31:42.983Z,11.265408
2018-12-04T01:31:55.392Z,11.265408
2018-12-04T01:32:07.789Z,1.609344
2018-12-04T01:32:20.188Z,1.609344
2018-12-04T01:32:32.592Z,3.218688
2018-12-04T01:32:45.002Z,3.218688
2018-12-04T01:32:57.407Z,3.218688
2018-12-04T01:33:09.879Z,3.218688
2018-12-04T01:33:22.299Z,3.218688
2018-12-04T01:33:34.699Z,3.218688
2018-12-04T01:33:47.121Z,4.828032
2018-12-04T01:33:59.654Z,6.437376
2018-12-04T01:34:12.047Z,3.218688
2018-12-04T01:34:24.458Z,3.218688
2018-12-04T01:34:36.834Z,3.218688
2018-12-04T01:34:49.270Z,3.218688
2018-12-04T01:35:01.683Z,3.218688
2018-12-04T01:35:14.111Z,8.04672
2018-12-04T01:35:26.508Z,8.04672
2018-12-04T01:35:38.864Z,8.04672
2018-12-04T01:35:51.291Z,8.04672
2018-12-04T01:36:03.829Z,8.04672
2018-12-04T01:36:16.204Z,3.218688
2018-12-04T01:36:28.590Z,3.218688
2018-12-04T01:36:40.975Z,3.218688
2018-12-04T01:36:54.529Z,4.828032
2018-12-04T01:37:06.927Z,3.218688
2018-12-04T01:37:19.320Z,3.218688
2018-12-04T01:37:31.753Z,3.218688
2018-12-04T01:37:44.144Z,3.218688
2018-12-04T01:37:56.520Z,3.218688
2018-12-04T01:38:08.889Z,6.437376
2018-12-04T01:38:21.265Z,6.437376
2018-12-04T01:38:33.643Z,6.437376
2018-12-04T01:38:46.041Z,6.437376
2018-12-04T01:38:58.456Z,6.437376
2018-12-04T01:39:10.839Z,6.437376
2018-12-04T01:39:23.249Z,6.437376
2018-12-04T01:39:35.643Z,6.437376
2018-12-04T01:39:48.028Z,8.04672
2018-12-04T01:40:00.415Z,9.656064
2018-12-04T01:40:12.804Z,6.437376
2018-12-04T01:40:25.194Z,6.437376
2018-12-04T01:40:37.605Z,6.437376
2018-12-04T01:40:49.993Z,6.437376
2018-12-04T01:41:02.552Z,6.437376
2018-12-04T01:41:15.049Z,3.218688
2018-12-04T01:41:27.427Z,3.218688
2018-12-04T01:41:39.801Z,3.218688
2018-12-04T01:41:52.173Z,6.437376
2018-12-04T01:42:04.553Z,9.656064
2018-12-04T01:42:16.966Z,9.656064
2018-12-04T01:42:29.338Z,9.656064
2018-12-04T01:42:41.724Z,9.656064
2018-12-04T01:42:54.118Z,9.656064
2018-12-04T01:43:06.498Z,8.04672
2018-12-04T01:43:18.882Z,8.04672
2018-12-04T01:43:31.272Z,8.04672
2018-12-04T01:43:43.872Z,8.04672
2018-12-04T01:43:56.273Z,8.04672
2018-12-04T01:44:08.645Z,4.828032
2018-12-04T01:44:21.017Z,6.437376
2018-12-04T01:44:33.441Z,6.437376
2018-12-04T01:44:45.813Z,6.437376
2018-12-04T01:44:58.184Z,6.437376
2018-12-04T01:45:10.592Z,3.218688
2018-12-04T01:45:22.989Z,4.828032
2018-12-04T01:45:35.398Z,4.828032
2018-12-04T01:45:47.792Z,6.437376
2018-12-04T01:46:00.199Z,9.656064
2018-12-04T01:46:12.589Z,8.04672
2018-12-04T01:46:25.106Z,8.04672
2018-12-04T01:46:37.483Z,8.04672
2018-12-04T01:46:49.866Z,8.04672
2018-12-04T01:47:02.251Z,8.04672
2018-12-04T01:47:14.636Z,3.218688
2018-12-04T01:47:26.995Z,6.437376
2018-12-04T01:47:39.430Z,6.437376
2018-12-04T01:47:52.155Z,6.437376
2018-12-04T01:48:04.534Z,6.437376
2018-12-04T01:48:16.905Z,6.437376
2018-12-04T01:48:29.283Z,6.437376
2018-12-04T01:48:41.670Z,6.437376
2018-12-04T01:48:54.097Z,6.437376
2018-12-04T01:49:06.497Z,3.218688
2018-12-04T01:49:19.281Z,4.828032
2018-12-04T01:49:31.742Z,4.828032
2018-12-04T01:49:44.137Z,4.828032
2018-12-04T01:49:56.662Z,4.828032
2018-12-04T01:50:09.064Z,3.218688
2018-12-04T01:50:21.413Z,3.218688
2018-12-04T01:50:33.844Z,3.218688
2018-12-04T01:50:46.246Z,3.218688
2018-12-04T01:50:58.619Z,3.218688
2018-12-04T01:51:10.985Z,6.437376
2018-12-04T01:51:23.352Z,6.437376
2018-12-04T01:51:35.733Z,6.437376
2018-12-04T01:51:48.195Z,6.437376
2018-12-04T01:52:00.580Z,6.437376
2018-12-04T01:52:12.957Z,1.609344
2018-12-04T01:52:25.334Z,3.218688
2018-12-04T01:52:37.718Z,4.828032
2018-12-04T01:52:50.102Z,8.04672
2018-12-04T01:53:02.499Z,8.04672
2018-12-04T01:53:14.912Z,6.437376
2018-12-04T01:53:27.291Z,8.04672
2018-12-04T01:53:39.651Z,8.04672
2018-12-04T01:53:52.039Z,9.656064
2018-12-04T01:54:04.399Z,9.656064
2018-12-04T01:54:16.917Z,3.218688
2018-12-04T01:54:29.289Z,8.04672
2018-12-04T01:54:41.826Z,8.04672
2018-12-04T01:54:54.215Z,8.04672
2018-12-04T01:55:06.610Z,1.609344
2018-12-04T01:55:18.987Z,3.218688
2018-12-04T01:55:31.367Z,8.04672
2018-12-04T01:55:43.754Z,8.04672
2018-12-04T01:55:56.164Z,8.04672
2018-12-04T01:56:08.555Z,4.828032
2018-12-04T01:56:20.931Z,11.265408
2018-12-04T01:56:33.295Z,11.265408
2018-12-04T01:56:45.679Z,11.265408
2018-12-04T01:56:58.065Z,11.265408
2018-12-04T01:57:10.434Z,4.828032
2018-12-04T01:57:22.792Z,4.828032
2018-12-04T01:57:35.170Z,4.828032
2018-12-04T01:57:47.557Z,4.828032
2018-12-04T01:57:59.946Z,6.437376
2018-12-04T01:58:12.316Z,11.265408
2018-12-04T01:58:24.705Z,11.265408
2018-12-04T01:58:37.086Z,11.265408
2018-12-04T01:58:49.475Z,11.265408
2018-12-04T01:59:01.852Z,11.265408
2018-12-04T01:59:14.242Z,6.437376
2018-12-04T01:59:26.608Z,6.437376
2018-12-04T01:59:39.034Z,6.437376
2018-12-04T01:59:51.395Z,6.437376
2018-12-04T02:00:03.756Z,0
2018-12-04T02:00:16.147Z,3.218688
2018-12-04T02:00:28.547Z,3.218688
2018-12-04T02:00:40.956Z,3.218688
2018-12-04T02:00:53.375Z,3.218688
2018-12-04T02:01:05.781Z,4.828032
2018-12-04T02:01:18.202Z,8.04672
2018-12-04T02:01:30.632Z,8.04672
2018-12-04T02:01:43.013Z,8.04672
2018-12-04T02:01:55.379Z,8.04672
2018-12-04T02:02:07.757Z,3.218688
2018-12-04T02:02:20.186Z,6.437376
2018-12-04T02:02:32.572Z,8.04672
2018-12-04T02:02:44.942Z,8.04672
2018-12-04T02:02:57.316Z,8.04672
2018-12-04T02:03:09.700Z,4.828032
2018-12-04T02:03:22.076Z,4.828032
2018-12-04T02:03:34.452Z,6.437376
2018-12-04T02:03:47.082Z,6.437376
2018-12-04T02:03:59.522Z,6.437376
2018-12-04T02:04:11.903Z,3.218688
2018-12-04T02:04:24.279Z,4.828032
2018-12-04T02:04:36.651Z,4.828032
2018-12-04T02:04:49.078Z,4.828032
2018-12-04T02:05:01.462Z,4.828032
2018-12-04T02:05:13.871Z,1.609344
2018-12-04T02:05:26.253Z,3.218688
2018-12-04T02:05:38.637Z,3.218688
2018-12-04T02:05:51.014Z,3.218688
2018-12-04T02:06:03.352Z,3.218688
2018-12-04T02:06:15.735Z,1.609344
2018-12-04T02:06:28.285Z,3.218688
2018-12-04T02:06:40.656Z,4.828032
2018-12-04T02:06:53.036Z,4.828032
2018-12-04T02:07:05.428Z,4.828032
2018-12-04T02:07:17.851Z,6.437376
2018-12-04T02:07:30.234Z,6.437376
2018-12-04T02:07:42.638Z,6.437376
2018-12-04T02:07:55.014Z,6.437376
2018-12-04T02:08:07.375Z,1.609344
2018-12-04T02:08:19.782Z,3.218688
2018-12-04T02:08:32.140Z,6.437376
2018-12-04T02:08:44.539Z,6.437376
2018-12-04T02:08:56.904Z,6.437376
2018-12-04T02:09:09.284Z,1.609344
2018-12-04T02:09:21.657Z,1.609344
2018-12-04T02:09:34.053Z,1.609344
2018-12-04T02:09:46.402Z,1.609344
2018-12-04T02:09:58.828Z,3.218688
2018-12-04T02:10:11.253Z,3.218688
2018-12-04T02:10:23.639Z,3.218688
2018-12-04T02:10:36.014Z,4.828032
2018-12-04T02:10:48.400Z,8.04672
2018-12-04T02:11:00.767Z,8.04672
2018-12-04T02:11:13.149Z,1.609344
2018-12-04T02:11:25.574Z,1.609344
2018-12-04T02:11:37.937Z,1.609344
2018-12-04T02:11:50.345Z,1.609344
2018-12-04T02:12:02.725Z,1.609344
2018-12-04T02:12:15.085Z,3.218688
2018-12-04T02:12:27.508Z,3.218688
2018-12-04T02:12:39.857Z,8.04672
2018-12-04T02:12:52.216Z,8.04672
2018-12-04T02:13:04.691Z,0
2018-12-04T02:13:17.076Z,1.609344
2018-12-04T02:13:29.436Z,3.218688
2018-12-04T02:13:41.806Z,6.437376
2018-12-04T02:13:54.149Z,6.437376
2018-12-04T02:14:06.545Z,3.218688
2018-12-04T02:14:18.923Z,3.218688
2018-12-04T02:14:31.292Z,3.218688
2018-12-04T02:14:43.678Z,3.218688
2018-12-04T02:14:56.180Z,3.218688
2018-12-04T02:15:08.575Z,0
2018-12-04T02:15:20.970Z,3.218688
2018-12-04T02:15:33.402Z,3.218688
2018-12-04T02:15:45.794Z,3.218688
2018-12-04T02:15:58.199Z,6.437376
2018-12-04T02:16:10.594Z,3.218688
2018-12-04T02:16:22.959Z,6.437376
2018-12-04T02:16:35.348Z,6.437376
2018-12-04T02:16:47.723Z,6.437376
2018-12-04T02:17:00.116Z,8.04672
2018-12-04T02:17:12.506Z,9.656064
2018-12-04T02:17:24.944Z,9.656064
2018-12-04T02:17:37.313Z,9.656064
2018-12-04T02:17:49.691Z,9.656064
2018-12-04T02:18:02.088Z,9.656064
2018-12-04T02:18:14.460Z,6.437376
2018-12-04T02:18:26.823Z,6.437376
2018-12-04T02:18:39.182Z,6.437376
2018-12-04T02:18:51.547Z,11.265408
2018-12-04T02:19:03.916Z,4.828032
2018-12-04T02:19:16.278Z,6.437376
2018-12-04T02:19:28.673Z,8.04672
2018-12-04T02:19:41.050Z,9.656064
2018-12-04T02:19:53.507Z,12.874752
2018-12-04T02:20:05.873Z,9.656064
2018-12-04T02:20:18.399Z,9.656064
2018-12-04T02:20:30.769Z,12.874752
2018-12-04T02:20:43.121Z,12.874752
2018-12-04T02:20:55.608Z,12.874752
2018-12-04T02:21:08.750Z,4.828032
2018-12-04T02:21:21.140Z,4.828032
2018-12-04T02:21:33.600Z,4.828032
2018-12-04T02:21:45.987Z,4.828032
2018-12-04T02:21:58.382Z,4.828032
2018-12-04T02:22:11.081Z,0
2018-12-04T02:22:23.481Z,6.437376
2018-12-04T02:22:35.870Z,6.437376
2018-12-04T02:22:48.273Z,9.656064
2018-12-04T02:23:00.645Z,9.656064
2018-12-04T02:23:13.031Z,9.656064
2018-12-04T02:23:25.417Z,9.656064
2018-12-04T02:23:37.797Z,9.656064
2018-12-04T02:23:50.270Z,9.656064
2018-12-04T02:24:02.839Z,6.437376
2018-12-04T02:24:15.188Z,6.437376
2018-12-04T02:24:27.554Z,6.437376
2018-12-04T02:24:39.909Z,6.437376
2018-12-04T02:24:52.328Z,6.437376
2018-12-04T02:25:04.709Z,8.04672
2018-12-04T02:25:17.230Z,8.04672
2018-12-04T02:25:29.614Z,8.04672
2018-12-04T02:25:41.981Z,12.874752
2018-12-04T02:25:54.359Z,12.874752
2018-12-04T02:26:06.845Z,1.609344